aviador You're here:

OMSJ Decoded Metar

SHARJAH in UNITED ARAB EMIRATES
Report Time2017-07-26 04:00:00
UTC Time2017-07-26 04:37:25
Flight Rules vfr VFR
Wind210° at 03 kt
W.Decomp.*RWY 12: 0.1 kt HW 3.0 kt RCW
W.Rank210° ranks 24
Current wind is below 210° avg. (6.3)
Visibility8000 m
Phenomena:N/A
Clouds:N/A
Expected CloudBase > 8,400 ft AGL from Temp-Dew spread
CeilingNone
Temp39°C (ISA +24)
Dew Point18°C (29% RH)
Heat Index40.9°C
QNH0998 hPa
Density Alt3,609 ft
Elevation108 ft
Report Wrong Elevation
Raw Report
METAR OMSJ 260400Z 21003KT 8000 NSC 39/18 Q0998=

Extra information for OMSJ:More info

Metar Taf Metar & Taf Last 4 Metars F.Rules Stats Wind Profile Meteogram Temp Stats Airport Information Weather charts Add Link Nearby VenuesMetar ALERT Operation Metar Decoded Social comments